Terminal Aerodrome Forecast
Issued by NWS

Home | Current Version | Previous Version | Text Only | Print | Product List | Glossary On
Versions: 1 2 3 4 5 6 7 8 9 10 11 12 13 14 15
958
FTUS45 KPSR 022323
TAFIPL
TAF
KIPL 022323Z 0300/0324 26005KT P6SM SKC
      TEMPO 0300/0304 VRB03KT
     FM031500 VRB05KT P6SM SKC
     FM032000 11005KT P6SM FEW250=

USA.gov is the U.S. government's official web portal to all federal, state and local government web resources and services.